Time;durP1;ratioP1;P1;durP2;ratioP2;P2;SDS_P1;SDS_P2;PMS_P1;PMS_P2;Temp;Humidity;BMP_temperature;BMP_pressure;BME280_temperature;BME280_humidity;BME280_pressure;Samples;Min_cycle;Max_cycle;Signal;HPM_P1;HPM_P2
2023/01/07 00:01:26;;;;;;;2.17;1.58;;;11.00;99.90;;;;;;5072789;28;20185;-48
2023/01/07 00:03:54;;;;;;;0.90;0.90;;;11.00;99.90;;;;;;5072981;28;20743;-45
2023/01/07 00:06:22;;;;;;;2.05;1.67;;;11.00;99.90;;;;;;5071716;28;20189;-45
2023/01/07 00:08:49;;;;;;;1.15;1.00;;;11.00;99.90;;;;;;5072689;28;20173;-45
2023/01/07 00:11:18;;;;;;;1.70;0.90;;;10.90;99.90;;;;;;5072703;28;20178;-45
2023/01/07 00:13:45;;;;;;;1.27;1.17;;;11.00;99.90;;;;;;5073480;28;20177;-45
2023/01/07 00:16:13;;;;;;;1.30;1.20;;;11.00;99.90;;;;;;5073043;28;20189;-45
2023/01/07 00:18:40;;;;;;;1.30;1.10;;;10.90;99.90;;;;;;5072757;28;20235;-45
2023/01/07 00:21:08;;;;;;;2.30;1.10;;;10.90;99.90;;;;;;5071966;28;20166;-45
2023/01/07 00:23:35;;;;;;;3.38;1.45;;;11.00;99.90;;;;;;5072372;28;20584;-45
2023/01/07 00:26:03;;;;;;;1.52;1.10;;;10.90;99.90;;;;;;5072052;28;20170;-45
2023/01/07 00:28:29;;;;;;;1.58;1.10;;;11.00;99.90;;;;;;5072471;28;20519;-45
2023/01/07 00:31:02;;;;;;;2.55;1.10;;;11.00;99.90;;;;;;5072430;28;20166;-45
2023/01/07 00:33:28;;;;;;;2.08;1.10;;;11.00;99.90;;;;;;5072360;28;20166;-45
2023/01/07 00:36:01;;;;;;;1.95;0.95;;;11.00;99.90;;;;;;5072331;28;20178;-45
2023/01/07 00:38:27;;;;;;;2.15;1.30;;;11.00;99.90;;;;;;5072266;28;20219;-45
2023/01/07 00:40:52;;;;;;;2.10;1.90;;;11.00;99.90;;;;;;5072322;28;20174;-44
2023/01/07 00:43:18;;;;;;;1.75;1.30;;;11.00;99.90;;;;;;5072167;28;20284;-45
2023/01/07 00:45:44;;;;;;;6.95;3.47;;;11.00;99.90;;;;;;5072511;28;20213;-45
2023/01/07 00:48:09;;;;;;;2.55;2.15;;;11.00;99.90;;;;;;5072488;28;20173;-45
2023/01/07 00:50:37;;;;;;;1.30;1.20;;;11.00;99.90;;;;;;5072187;28;20199;-45
2023/01/07 00:53:04;;;;;;;1.20;1.10;;;10.90;99.90;;;;;;5072068;28;20645;-45
2023/01/07 00:55:30;;;;;;;1.50;1.40;;;11.00;99.90;;;;;;5072226;28;20181;-46
2023/01/07 00:57:56;;;;;;;1.65;1.10;;;10.90;99.90;;;;;;5071590;28;20169;-45
2023/01/07 01:00:23;;;;;;;1.10;1.00;;;11.00;99.90;;;;;;5071800;28;20197;-45
2023/01/07 01:02:50;;;;;;;2.88;1.30;;;11.00;99.90;;;;;;5071327;28;20218;-45
2023/01/07 01:05:17;;;;;;;2.05;0.90;;;11.00;99.90;;;;;;5072107;28;20209;-46
2023/01/07 01:07:42;;;;;;;1.08;1.00;;;11.00;99.90;;;;;;5072525;28;20245;-45
2023/01/07 01:10:10;;;;;;;1.30;1.20;;;11.00;99.90;;;;;;5071908;28;20691;-45
2023/01/07 01:12:36;;;;;;;1.50;1.08;;;11.00;99.90;;;;;;5072086;28;20216;-46
2023/01/07 01:15:04;;;;;;;2.17;1.38;;;11.00;99.90;;;;;;5071804;28;20166;-47
2023/01/07 01:17:30;;;;;;;3.10;1.35;;;11.00;99.90;;;;;;5071828;28;20508;-46
2023/01/07 01:19:56;;;;;;;1.30;1.13;;;11.00;99.90;;;;;;5071755;28;20255;-46
2023/01/07 01:22:21;;;;;;;1.73;1.30;;;10.90;99.90;;;;;;5071754;28;20298;-46
2023/01/07 01:24:48;;;;;;;1.83;1.25;;;10.90;99.90;;;;;;5071640;28;20719;-46
2023/01/07 01:27:14;;;;;;;2.05;1.35;;;11.00;99.90;;;;;;5071277;28;20166;-45
2023/01/07 01:29:39;;;;;;;1.52;1.13;;;11.00;99.90;;;;;;5071980;28;20220;-46
2023/01/07 01:32:05;;;;;;;4.45;1.20;;;10.90;99.90;;;;;;5071612;28;20618;-46
2023/01/07 01:34:30;;;;;;;1.75;1.30;;;10.90;99.90;;;;;;5071603;28;20618;-46
2023/01/07 01:36:56;;;;;;;1.70;1.05;;;10.90;99.90;;;;;;5071623;28;20166;-46
2023/01/07 01:39:22;;;;;;;1.70;1.00;;;10.80;99.90;;;;;;5071562;28;20177;-45
2023/01/07 01:41:47;;;;;;;1.40;1.05;;;10.70;99.90;;;;;;5071466;28;20166;-45
2023/01/07 01:44:35;;;;;;;2.00;1.23;;;10.70;99.90;;;;;;5071796;28;20740;-46
2023/01/07 01:47:05;;;;;;;0.95;0.95;;;10.70;99.90;;;;;;5071324;28;20166;-46
2023/01/07 01:49:35;;;;;;;0.82;0.82;;;10.70;99.90;;;;;;5071497;28;20166;-45
2023/01/07 01:52:15;;;;;;;1.50;1.00;;;10.60;99.90;;;;;;5071485;28;20165;-46
2023/01/07 01:54:48;;;;;;;1.88;1.23;;;10.60;99.90;;;;;;5071808;28;20161;-45
2023/01/07 01:57:16;;;;;;;1.42;1.10;;;10.60;99.90;;;;;;5071694;28;20213;-45
2023/01/07 01:59:43;;;;;;;0.80;0.80;;;10.60;99.90;;;;;;5071763;28;20162;-45
2023/01/07 02:02:09;;;;;;;1.17;1.08;;;10.60;99.90;;;;;;5071549;28;20217;-46
2023/01/07 02:04:36;;;;;;;1.73;0.93;;;10.40;99.90;;;;;;5071204;28;20555;-45
2023/01/07 02:07:09;;;;;;;1.58;1.27;;;10.50;99.90;;;;;;5071338;28;20232;-46
2023/01/07 02:09:34;;;;;;;1.20;1.10;;;10.50;99.90;;;;;;5071314;28;20177;-45
2023/01/07 02:12:30;;;;;;;1.67;1.17;;;10.40;99.90;;;;;;5071324;28;20162;-45
2023/01/07 02:15:23;;;;;;;2.47;1.05;;;10.40;99.90;;;;;;5071235;28;20170;-46
2023/01/07 02:18:10;;;;;;;2.10;1.10;;;10.40;99.90;;;;;;5071277;28;20162;-45
2023/01/07 02:21:01;;;;;;;1.40;1.00;;;10.40;99.90;;;;;;5069437;28;20197;-45
2023/01/07 02:23:54;;;;;;;3.70;1.27;;;10.30;99.90;;;;;;5055254;28;20209;-45
2023/01/07 02:26:48;;;;;;;1.70;1.20;;;10.40;99.90;;;;;;5071183;28;20178;-45
2023/01/07 02:29:44;;;;;;;2.50;1.13;;;10.40;99.90;;;;;;5071315;28;20499;-45
2023/01/07 02:32:18;;;;;;;1.80;1.33;;;10.30;99.90;;;;;;5071359;28;20166;-45
2023/01/07 02:35:22;;;;;;;1.00;1.00;;;10.40;99.90;;;;;;5071025;28;20244;-45
2023/01/07 02:38:06;;;;;;;1.30;1.20;;;10.40;99.90;;;;;;5070974;28;20170;-45
2023/01/07 02:40:44;;;;;;;1.23;1.13;;;10.30;99.90;;;;;;5073224;28;20629;-45
2023/01/07 02:43:32;;;;;;;3.47;1.10;;;10.30;99.90;;;;;;5074992;28;20166;-45
2023/01/07 02:46:09;;;;;;;3.25;1.20;;;10.30;99.90;;;;;;5074373;28;20201;-44
2023/01/07 02:48:36;;;;;;;1.15;0.93;;;10.30;99.90;;;;;;5074693;28;20173;-45
2023/01/07 02:51:02;;;;;;;0.93;0.93;;;10.30;99.90;;;;;;5074354;28;20637;-45
2023/01/07 02:53:28;;;;;;;2.85;0.93;;;10.20;99.90;;;;;;5073896;28;20177;-45
2023/01/07 02:56:06;;;;;;;0.98;0.98;;;10.20;99.90;;;;;;5074301;28;20637;-45
2023/01/07 02:59:00;;;;;;;1.00;0.90;;;10.20;99.90;;;;;;5074240;28;20625;-45
2023/01/07 03:01:39;;;;;;;2.45;1.05;;;10.20;99.90;;;;;;5071854;28;20177;-45
2023/01/07 03:04:37;;;;;;;0.88;0.88;;;10.20;99.90;;;;;;5074043;28;20208;-45
2023/01/07 03:07:27;;;;;;;0.80;0.80;;;10.10;99.90;;;;;;5074314;28;20162;-45
2023/01/07 03:10:10;;;;;;;0.90;0.90;;;10.10;99.90;;;;;;5074097;28;20219;-45
2023/01/07 03:12:48;;;;;;;1.30;1.20;;;10.10;99.90;;;;;;5074230;28;20170;-45
2023/01/07 03:15:20;;;;;;;0.77;0.75;;;10.10;99.90;;;;;;5073953;28;20173;-45
2023/01/07 03:18:02;;;;;;;0.82;0.82;;;10.10;99.90;;;;;;5073865;28;20170;-45
2023/01/07 03:20:30;;;;;;;1.15;1.05;;;10.10;99.90;;;;;;5073912;28;20162;-45
2023/01/07 03:22:57;;;;;;;1.30;1.00;;;10.10;99.90;;;;;;5073806;28;20166;-45
2023/01/07 03:25:25;;;;;;;2.65;1.20;;;10.10;99.90;;;;;;5073143;28;20212;-45
2023/01/07 03:27:51;;;;;;;1.42;1.25;;;10.10;99.90;;;;;;5073719;28;20158;-45
2023/01/07 03:30:18;;;;;;;1.08;1.00;;;10.00;99.90;;;;;;5073535;28;20522;-45
2023/01/07 03:32:50;;;;;;;1.45;1.20;;;10.00;99.90;;;;;;5073525;28;20170;-45
2023/01/07 03:35:17;;;;;;;1.30;1.20;;;10.00;99.90;;;;;;5073481;28;20174;-45
2023/01/07 03:37:44;;;;;;;2.65;1.30;;;10.00;99.90;;;;;;5073862;28;20637;-45
2023/01/07 03:40:11;;;;;;;1.20;1.10;;;10.10;99.90;;;;;;5073834;28;20198;-45
2023/01/07 03:42:39;;;;;;;2.55;1.50;;;10.10;99.90;;;;;;5073395;28;20174;-45
2023/01/07 03:45:16;;;;;;;1.60;1.20;;;10.10;99.90;;;;;;5073229;28;20202;-45
2023/01/07 03:47:48;;;;;;;1.80;1.40;;;10.00;99.90;;;;;;5073669;28;20266;-45
2023/01/07 03:50:14;;;;;;;1.58;1.48;;;10.10;99.90;;;;;;5072914;28;20170;-45
2023/01/07 03:52:40;;;;;;;1.58;1.30;;;10.10;99.90;;;;;;5073603;28;20224;-45
2023/01/07 03:55:06;;;;;;;5.03;1.50;;;10.10;99.90;;;;;;5072879;28;20634;-45
2023/01/07 03:57:32;;;;;;;5.13;1.50;;;10.00;99.90;;;;;;5073260;28;20647;-45
2023/01/07 03:59:58;;;;;;;1.90;1.27;;;10.00;99.90;;;;;;5073092;28;20174;-45
2023/01/07 04:02:25;;;;;;;3.75;1.50;;;10.00;99.90;;;;;;5072950;28;20221;-45
2023/01/07 04:04:51;;;;;;;3.17;1.50;;;10.10;99.90;;;;;;5073119;28;20213;-45
2023/01/07 04:07:17;;;;;;;1.70;1.30;;;10.10;99.90;;;;;;5073289;28;20693;-45
2023/01/07 04:09:42;;;;;;;1.50;1.20;;;10.10;99.90;;;;;;5073248;28;20743;-45
2023/01/07 04:12:08;;;;;;;3.42;1.48;;;10.20;99.90;;;;;;5072780;28;20245;-45
2023/01/07 04:14:33;;;;;;;3.42;1.95;;;10.10;99.90;;;;;;5072759;28;20629;-45
2023/01/07 04:16:59;;;;;;;2.08;1.52;;;10.20;99.90;;;;;;5072657;28;20162;-45
2023/01/07 04:19:24;;;;;;;1.50;1.25;;;10.30;99.90;;;;;;5072674;28;20202;-45
2023/01/07 04:21:50;;;;;;;3.03;1.65;;;10.40;99.90;;;;;;5072648;28;20212;-45
2023/01/07 04:24:16;;;;;;;4.53;1.85;;;10.40;99.90;;;;;;5072617;28;20205;-45
2023/01/07 04:26:41;;;;;;;3.88;2.28;;;10.50;99.90;;;;;;5073006;28;20530;-45
2023/01/07 04:29:07;;;;;;;4.00;1.88;;;10.60;99.90;;;;;;5072793;28;20174;-45
2023/01/07 04:31:32;;;;;;;4.57;2.30;;;10.70;99.90;;;;;;5072514;28;20172;-45
2023/01/07 04:33:58;;;;;;;6.97;2.33;;;10.80;99.90;;;;;;5071859;28;20181;-45
2023/01/07 04:36:23;;;;;;;3.05;2.05;;;10.80;99.90;;;;;;5072277;28;20257;-45
2023/01/07 04:38:49;;;;;;;2.50;1.95;;;10.80;99.90;;;;;;5072608;28;20169;-45
2023/01/07 04:41:14;;;;;;;3.20;1.60;;;10.80;99.90;;;;;;5072302;28;20657;-45
2023/01/07 04:43:40;;;;;;;2.38;1.70;;;10.80;99.90;;;;;;5072512;28;20622;-45
2023/01/07 04:46:06;;;;;;;4.80;1.63;;;10.90;99.90;;;;;;5072144;28;20192;-45
2023/01/07 04:48:31;;;;;;;4.88;2.10;;;10.90;99.90;;;;;;5072325;28;20252;-45
2023/01/07 04:50:57;;;;;;;3.55;1.60;;;10.90;99.90;;;;;;5072092;28;20182;-45
2023/01/07 04:53:22;;;;;;;2.25;1.67;;;10.80;99.90;;;;;;5072097;28;20166;-45
2023/01/07 04:55:48;;;;;;;1.70;1.35;;;10.80;99.90;;;;;;5071988;28;20169;-45
2023/01/07 04:58:14;;;;;;;4.93;2.15;;;10.80;99.90;;;;;;5072005;28;20201;-45
2023/01/07 05:00:39;;;;;;;2.85;1.77;;;10.80;99.90;;;;;;5072359;28;20162;-45
2023/01/07 05:03:05;;;;;;;5.40;1.67;;;10.80;99.90;;;;;;5070995;28;20214;-45
2023/01/07 05:05:31;;;;;;;4.60;1.70;;;10.80;99.90;;;;;;5071766;28;20639;-45
2023/01/07 05:07:56;;;;;;;3.33;2.38;;;10.70;99.90;;;;;;5071879;28;20168;-44
2023/01/07 05:10:22;;;;;;;5.60;2.03;;;10.70;99.90;;;;;;5071816;28;20177;-45
2023/01/07 05:12:47;;;;;;;4.97;1.50;;;10.70;99.90;;;;;;5071855;28;20169;-45
2023/01/07 05:15:13;;;;;;;2.30;1.80;;;10.70;99.90;;;;;;5071912;28;20169;-45
2023/01/07 05:17:39;;;;;;;2.03;1.65;;;10.70;99.90;;;;;;5072220;28;20704;-45
2023/01/07 05:20:06;;;;;;;3.67;1.80;;;10.80;99.90;;;;;;5071701;28;20252;-45
2023/01/07 05:22:32;;;;;;;4.63;1.70;;;10.70;99.90;;;;;;5071679;28;20177;-45
2023/01/07 05:24:57;;;;;;;3.13;1.88;;;10.70;99.90;;;;;;5071631;28;20224;-45
2023/01/07 05:27:23;;;;;;;3.65;2.05;;;10.70;99.90;;;;;;5071919;28;20168;-45
2023/01/07 05:29:48;;;;;;;3.58;1.60;;;10.70;99.90;;;;;;5071681;28;20283;-45
2023/01/07 05:32:14;;;;;;;2.15;1.60;;;10.60;99.90;;;;;;5071848;28;20173;-45
2023/01/07 05:34:39;;;;;;;2.03;1.38;;;10.60;99.90;;;;;;5071955;28;20158;-45
2023/01/07 05:37:05;;;;;;;3.72;1.45;;;10.50;99.90;;;;;;5071594;28;20166;-45
2023/01/07 05:39:30;;;;;;;2.05;1.45;;;10.40;99.90;;;;;;5071542;28;20548;-45
2023/01/07 05:41:56;;;;;;;2.00;1.60;;;10.40;99.90;;;;;;5071533;28;20189;-45
2023/01/07 05:44:21;;;;;;;4.40;2.67;;;10.40;99.90;;;;;;5071640;28;20198;-45
2023/01/07 05:46:47;;;;;;;3.20;1.30;;;10.30;99.90;;;;;;5071456;28;20162;-45
2023/01/07 05:49:12;;;;;;;2.10;1.42;;;10.30;99.90;;;;;;5071896;28;20170;-45
2023/01/07 05:51:38;;;;;;;3.30;1.80;;;10.30;99.90;;;;;;5071765;28;20166;-44
2023/01/07 05:54:04;;;;;;;4.95;2.10;;;10.30;99.90;;;;;;5071443;28;20166;-45
2023/01/07 05:56:29;;;;;;;5.82;2.13;;;10.20;99.90;;;;;;5071614;28;20198;-45
2023/01/07 05:58:55;;;;;;;2.17;1.60;;;10.20;99.90;;;;;;5071391;28;20165;-45
2023/01/07 06:01:20;;;;;;;1.90;1.70;;;10.10;99.90;;;;;;5071232;28;20256;-45
2023/01/07 06:03:46;;;;;;;2.95;1.50;;;10.10;99.90;;;;;;5071280;28;20265;-45
2023/01/07 06:06:11;;;;;;;3.05;1.67;;;10.10;99.90;;;;;;5071950;28;20174;-45
2023/01/07 06:08:38;;;;;;;2.90;1.75;;;10.00;99.90;;;;;;5071297;28;20202;-45
2023/01/07 06:11:05;;;;;;;2.30;1.45;;;10.00;99.90;;;;;;5071466;28;20257;-45
2023/01/07 06:13:31;;;;;;;5.18;1.60;;;10.00;99.90;;;;;;5072361;28;20193;-45
2023/01/07 06:16:05;;;;;;;10.13;4.65;;;10.00;99.90;;;;;;5075052;28;20162;-45
2023/01/07 06:18:31;;;;;;;2.72;1.73;;;9.90;99.90;;;;;;5074964;28;20158;-45
2023/01/07 06:20:57;;;;;;;7.20;3.50;;;10.00;99.90;;;;;;5074954;28;20237;-46
2023/01/07 06:23:23;;;;;;;11.18;5.53;;;10.00;99.90;;;;;;5074970;28;20258;-45
2023/01/07 06:25:49;;;;;;;6.43;3.45;;;9.90;99.90;;;;;;5075029;28;20288;-45
2023/01/07 06:28:14;;;;;;;6.05;3.85;;;9.90;99.90;;;;;;5074774;28;20166;-46
2023/01/07 06:30:40;;;;;;;1.80;1.70;;;9.90;99.90;;;;;;5075337;28;20170;-45
2023/01/07 06:33:06;;;;;;;1.88;1.48;;;9.90;99.90;;;;;;5074732;28;20607;-45
2023/01/07 06:35:32;;;;;;;4.90;3.25;;;9.90;99.90;;;;;;5074662;28;20219;-45
2023/01/07 06:37:59;;;;;;;3.20;1.90;;;9.90;99.90;;;;;;5074597;28;20556;-45
2023/01/07 06:40:25;;;;;;;1.80;1.70;;;9.80;99.90;;;;;;5074528;28;20170;-45
2023/01/07 06:42:51;;;;;;;2.88;2.13;;;9.80;99.90;;;;;;5074589;28;20173;-45
2023/01/07 06:45:16;;;;;;;1.50;1.40;;;9.80;99.90;;;;;;5074403;28;20671;-45
2023/01/07 06:47:42;;;;;;;2.97;2.03;;;9.80;99.90;;;;;;5074774;28;20526;-45
2023/01/07 06:50:08;;;;;;;2.80;1.70;;;9.90;99.90;;;;;;5074683;28;20205;-45
2023/01/07 06:52:33;;;;;;;1.77;1.40;;;10.00;99.90;;;;;;5074332;28;20159;-45
2023/01/07 06:54:59;;;;;;;1.88;1.42;;;10.00;99.90;;;;;;5074399;28;20533;-45
2023/01/07 06:57:24;;;;;;;1.83;1.45;;;10.00;99.90;;;;;;5074297;28;20184;-45
2023/01/07 06:59:50;;;;;;;1.40;1.30;;;10.00;99.90;;;;;;5074254;28;20173;-45
2023/01/07 07:02:26;;;;;;;2.28;1.63;;;10.00;99.90;;;;;;5074074;28;20214;-45
2023/01/07 07:04:52;;;;;;;2.95;1.60;;;10.10;99.90;;;;;;5074143;28;20255;-45
2023/01/07 07:07:19;;;;;;;4.15;2.00;;;10.10;99.90;;;;;;5074126;28;20189;-45
2023/01/07 07:09:45;;;;;;;3.03;1.60;;;10.10;99.90;;;;;;5074108;28;20588;-45
2023/01/07 07:12:11;;;;;;;1.92;1.60;;;10.10;99.90;;;;;;5074450;28;20166;-45
2023/01/07 07:14:37;;;;;;;3.50;1.60;;;10.10;99.90;;;;;;5074173;28;20174;-45
2023/01/07 07:17:03;;;;;;;2.20;1.70;;;10.20;99.90;;;;;;5073979;28;20223;-45
2023/01/07 07:19:29;;;;;;;2.15;1.92;;;10.20;99.90;;;;;;5073840;28;20212;-45
2023/01/07 07:21:55;;;;;;;1.92;1.60;;;10.20;99.90;;;;;;5073892;28;20205;-45
2023/01/07 07:24:20;;;;;;;3.30;1.70;;;10.20;99.90;;;;;;5073734;28;20190;-45
2023/01/07 07:26:46;;;;;;;1.75;1.42;;;10.30;99.90;;;;;;5072932;28;20170;-45
2023/01/07 07:29:11;;;;;;;3.00;1.45;;;10.20;99.90;;;;;;5074082;28;20264;-45
2023/01/07 07:31:37;;;;;;;1.63;1.50;;;10.30;99.90;;;;;;5073627;28;20194;-45
2023/01/07 07:34:03;;;;;;;2.13;1.75;;;10.30;99.90;;;;;;5073635;28;20614;-45
2023/01/07 07:36:29;;;;;;;2.42;1.48;;;10.40;99.90;;;;;;5073553;28;20249;-46
2023/01/07 07:38:54;;;;;;;1.40;1.30;;;10.40;99.90;;;;;;5073453;28;20701;-45
2023/01/07 07:41:20;;;;;;;2.92;1.23;;;10.40;99.90;;;;;;5072293;28;20166;-44
2023/01/07 07:43:46;;;;;;;3.17;2.28;;;10.40;99.90;;;;;;5072655;28;20162;-45
2023/01/07 07:46:12;;;;;;;4.28;2.65;;;10.30;99.90;;;;;;5072935;28;20657;-45
2023/01/07 07:48:37;;;;;;;1.75;1.52;;;10.30;99.90;;;;;;5072298;28;20165;-45
2023/01/07 07:51:03;;;;;;;4.82;2.05;;;10.30;99.90;;;;;;5072883;28;20170;-45
2023/01/07 07:53:28;;;;;;;3.60;2.70;;;10.30;99.90;;;;;;5072908;28;20170;-48
2023/01/07 07:55:54;;;;;;;24.65;13.40;;;10.30;99.90;;;;;;5073093;28;20173;-45
2023/01/07 07:58:20;;;;;;;6.47;3.78;;;10.30;99.90;;;;;;5072879;28;20176;-48
2023/01/07 08:00:45;;;;;;;2.15;1.45;;;10.30;99.90;;;;;;5073056;28;20197;-47
2023/01/07 08:03:11;;;;;;;9.35;7.35;;;10.30;99.90;;;;;;5073228;28;20640;-46
2023/01/07 08:05:41;;;;;;;2.15;1.55;;;10.30;99.90;;;;;;5072886;28;20209;-45
2023/01/07 08:08:08;;;;;;;1.45;1.20;;;10.30;99.90;;;;;;5072840;28;20626;-45
2023/01/07 08:10:34;;;;;;;1.85;1.60;;;10.30;99.90;;;;;;5072655;28;20162;-45
2023/01/07 08:13:00;;;;;;;3.60;1.85;;;10.30;99.90;;;;;;5072677;28;20166;-46
2023/01/07 08:15:25;;;;;;;2.00;1.30;;;10.30;99.90;;;;;;5072573;28;20176;-45
2023/01/07 08:18:01;;;;;;;3.20;1.55;;;10.40;99.90;;;;;;5072577;28;20162;-47
2023/01/07 08:20:27;;;;;;;3.35;1.85;;;10.40;99.90;;;;;;5072636;28;20166;-46
2023/01/07 08:22:53;;;;;;;3.00;1.80;;;10.40;99.90;;;;;;5072694;28;20173;-45
2023/01/07 08:25:18;;;;;;;2.20;2.00;;;10.40;99.90;;;;;;5072430;28;20262;-45
2023/01/07 08:27:44;;;;;;;1.88;1.70;;;10.40;99.90;;;;;;5072453;28;20634;-45
2023/01/07 08:30:10;;;;;;;2.45;2.15;;;10.40;99.90;;;;;;5072896;28;20238;-46
2023/01/07 08:32:36;;;;;;;3.40;2.13;;;10.40;99.90;;;;;;5071182;28;20170;-45
2023/01/07 08:35:03;;;;;;;1.40;1.27;;;10.40;99.90;;;;;;5072266;28;20163;-45
2023/01/07 08:37:29;;;;;;;4.35;2.13;;;10.40;99.90;;;;;;5072287;28;20170;-45
2023/01/07 08:39:54;;;;;;;1.80;1.55;;;10.40;99.90;;;;;;5072212;28;20166;-45
2023/01/07 08:42:20;;;;;;;2.63;1.80;;;10.40;99.90;;;;;;5072262;28;20172;-46
2023/01/07 08:44:46;;;;;;;3.00;2.13;;;10.40;99.90;;;;;;5072105;28;20241;-46
2023/01/07 08:47:11;;;;;;;9.70;5.53;;;10.40;99.90;;;;;;5072607;28;20166;-45
2023/01/07 08:49:37;;;;;;;6.82;3.80;;;10.50;99.90;;;;;;5072377;28;20178;-48
2023/01/07 08:52:02;;;;;;;4.30;3.00;;;10.50;99.90;;;;;;5072098;28;20216;-45
2023/01/07 08:54:28;;;;;;;5.57;2.58;;;10.40;99.90;;;;;;5072065;28;20172;-45
2023/01/07 08:56:53;;;;;;;3.60;2.90;;;10.50;99.90;;;;;;5072021;28;20174;-46
2023/01/07 08:59:19;;;;;;;3.85;2.13;;;10.50;99.90;;;;;;5071978;28;20162;-46
2023/01/07 09:01:45;;;;;;;4.30;2.33;;;10.60;99.90;;;;;;5071866;28;20225;-45
2023/01/07 09:04:10;;;;;;;3.03;2.20;;;10.80;99.90;;;;;;5072218;28;20194;-47
2023/01/07 09:06:37;;;;;;;2.90;2.10;;;10.80;99.90;;;;;;5072132;28;20285;-46
2023/01/07 09:09:02;;;;;;;1.98;1.77;;;10.80;99.90;;;;;;5071838;28;20706;-45
2023/01/07 09:11:28;;;;;;;2.50;1.80;;;10.80;99.90;;;;;;5071872;28;20642;-45
2023/01/07 09:13:53;;;;;;;5.75;1.92;;;10.80;99.90;;;;;;5071762;28;20259;-45
2023/01/07 09:16:19;;;;;;;2.63;1.60;;;10.90;99.90;;;;;;5071893;28;20170;-45
2023/01/07 09:18:44;;;;;;;5.43;2.10;;;11.00;99.90;;;;;;5071673;28;20172;-46
2023/01/07 09:21:10;;;;;;;5.53;2.20;;;11.10;99.90;;;;;;5072091;28;20201;-45
2023/01/07 09:23:35;;;;;;;3.72;2.45;;;11.10;99.90;;;;;;5071709;28;20185;-46
2023/01/07 09:26:01;;;;;;;4.45;2.40;;;11.10;99.90;;;;;;5071601;28;20617;-45
2023/01/07 09:28:27;;;;;;;4.13;2.30;;;11.10;99.90;;;;;;5071717;28;20672;-47
2023/01/07 09:30:53;;;;;;;4.00;2.40;;;11.10;99.90;;;;;;5061071;28;20244;-45
2023/01/07 09:33:19;;;;;;;6.07;2.55;;;11.20;99.90;;;;;;5051241;28;20262;-45
2023/01/07 09:35:44;;;;;;;3.00;2.13;;;11.20;99.90;;;;;;5050870;28;20257;-46
2023/01/07 09:38:13;;;;;;;2.45;2.25;;;11.20;99.90;;;;;;5050970;28;20569;-47
2023/01/07 09:40:41;;;;;;;6.75;2.17;;;11.20;99.90;;;;;;5051732;28;20158;-45
2023/01/07 09:43:21;;;;;;;3.28;2.10;;;11.20;99.90;;;;;;5052143;28;20534;-46
2023/01/07 09:45:51;;;;;;;2.53;2.28;;;11.20;99.90;;;;;;5050972;28;20234;-48
2023/01/07 09:48:32;;;;;;;2.33;2.00;;;11.30;99.90;;;;;;5051960;28;20277;-47
2023/01/07 09:51:10;;;;;;;3.22;2.42;;;11.30;99.90;;;;;;5056554;28;20174;-45
2023/01/07 09:53:42;;;;;;;3.58;2.00;;;11.30;99.90;;;;;;5056334;28;20158;-45
2023/01/07 09:56:23;;;;;;;2.50;1.90;;;11.40;99.90;;;;;;5066921;28;20174;-46
2023/01/07 09:58:50;;;;;;;2.53;1.88;;;11.40;99.90;;;;;;5058025;28;20201;-45
2023/01/07 10:01:30;;;;;;;3.42;1.85;;;11.50;99.90;;;;;;5054696;28;20163;-45
2023/01/07 10:04:15;;;;;;;1.70;1.58;;;11.50;99.90;;;;;;5054417;28;20186;-45
2023/01/07 10:06:58;;;;;;;3.80;1.77;;;11.50;99.90;;;;;;5055605;28;20175;-45
2023/01/07 10:09:46;;;;;;;5.80;2.33;;;11.60;99.90;;;;;;5054895;28;20198;-46
2023/01/07 10:12:32;;;;;;;2.13;1.88;;;11.70;99.90;;;;;;5055471;28;20167;-45
2023/01/07 10:15:18;;;;;;;3.28;1.77;;;11.70;99.90;;;;;;5053833;28;20261;-45
2023/01/07 10:17:52;;;;;;;2.30;1.70;;;11.70;99.90;;;;;;5054995;28;20163;-44
2023/01/07 10:20:42;;;;;;;42.42;30.95;;;11.70;99.90;;;;;;5054925;28;20167;-45
2023/01/07 10:23:14;;;;;;;2.65;2.30;;;11.70;99.90;;;;;;5055426;28;20212;-44
2023/01/07 10:25:47;;;;;;;2.65;1.98;;;11.70;99.90;;;;;;5055536;28;20289;-44
2023/01/07 10:28:19;;;;;;;4.22;1.92;;;11.80;99.90;;;;;;5055084;28;20250;-44
2023/01/07 10:30:50;;;;;;;2.85;2.03;;;11.80;99.90;;;;;;5054797;28;20246;-44
2023/01/07 10:33:25;;;;;;;3.42;1.80;;;11.80;99.90;;;;;;5055001;28;20232;-44
2023/01/07 10:36:17;;;;;;;4.38;2.22;;;11.90;99.90;;;;;;5054733;28;20159;-45
2023/01/07 10:38:54;;;;;;;2.65;1.70;;;11.80;99.90;;;;;;5054614;28;20177;-44
2023/01/07 10:41:35;;;;;;;2.38;1.60;;;11.70;99.90;;;;;;5054541;28;20673;-44
2023/01/07 10:44:25;;;;;;;3.05;2.17;;;11.80;99.90;;;;;;5054507;28;20166;-44
2023/01/07 10:47:00;;;;;;;4.00;1.75;;;11.80;99.90;;;;;;5054462;28;20505;-44
2023/01/07 10:49:25;;;;;;;2.30;1.90;;;11.70;99.90;;;;;;5054430;28;20198;-44
2023/01/07 10:52:00;;;;;;;3.90;1.80;;;11.70;99.90;;;;;;5054431;28;20571;-44
2023/01/07 10:54:37;;;;;;;3.33;2.10;;;11.60;99.90;;;;;;5054312;28;20569;-44
2023/01/07 10:57:21;;;;;;;2.47;2.28;;;11.50;99.90;;;;;;5054268;28;20575;-44
2023/01/07 10:59:50;;;;;;;4.22;1.85;;;11.50;99.90;;;;;;5053499;28;20174;-44
2023/01/07 11:02:19;;;;;;;2.20;1.58;;;11.40;99.90;;;;;;5053762;28;20214;-44
2023/01/07 11:04:45;;;;;;;3.38;1.80;;;11.50;99.90;;;;;;5053895;28;20242;-44
2023/01/07 11:07:28;;;;;;;2.40;1.70;;;11.50;99.90;;;;;;5054493;28;20206;-44
2023/01/07 11:09:55;;;;;;;1.73;1.60;;;11.60;99.90;;;;;;5052967;28;20159;-44
2023/01/07 11:12:39;;;;;;;3.95;2.05;;;11.60;99.90;;;;;;5054287;28;20178;-45
2023/01/07 11:15:32;;;;;;;1.70;1.25;;;11.70;99.90;;;;;;5054079;28;20170;-44
2023/01/07 11:18:06;;;;;;;1.60;1.50;;;11.70;99.90;;;;;;5053835;28;20171;-45
2023/01/07 11:20:49;;;;;;;1.23;1.13;;;11.70;99.90;;;;;;5053830;28;20163;-44
2023/01/07 11:23:31;;;;;;;2.45;1.33;;;11.70;99.90;;;;;;5053419;28;20166;-44
2023/01/07 11:26:17;;;;;;;1.95;1.70;;;11.70;99.90;;;;;;5053983;28;20233;-44
2023/01/07 11:28:52;;;;;;;1.40;1.30;;;11.70;99.90;;;;;;5054026;28;20167;-45
2023/01/07 11:31:19;;;;;;;1.90;1.63;;;11.70;99.90;;;;;;5053942;28;20178;-45
2023/01/07 11:33:48;;;;;;;1.75;1.30;;;11.70;99.90;;;;;;5053785;28;20178;-44
2023/01/07 11:36:14;;;;;;;2.03;1.20;;;11.80;99.90;;;;;;5053795;28;20179;-44
2023/01/07 11:38:40;;;;;;;1.80;1.58;;;11.90;99.90;;;;;;5054112;28;20512;-44
2023/01/07 11:41:22;;;;;;;2.38;1.30;;;11.80;99.90;;;;;;5053479;28;20274;-45
2023/01/07 11:43:51;;;;;;;1.15;0.93;;;11.70;99.90;;;;;;5053357;28;20642;-44
2023/01/07 11:46:18;;;;;;;3.42;1.50;;;11.70;99.90;;;;;;5053510;28;20228;-44
2023/01/07 11:48:53;;;;;;;1.40;1.20;;;11.70;99.90;;;;;;5053263;28;20574;-44
2023/01/07 11:51:21;;;;;;;18.33;2.40;;;11.70;99.90;;;;;;5053591;28;20227;-44
2023/01/07 11:53:49;;;;;;;0.98;0.90;;;11.70;99.90;;;;;;5053275;28;20170;-44
2023/01/07 11:56:22;;;;;;;1.20;1.05;;;11.70;99.90;;;;;;5053407;28;20171;-45
2023/01/07 11:58:51;;;;;;;1.10;1.00;;;12.00;99.90;;;;;;5052941;28;20163;-44
2023/01/07 12:01:19;;;;;;;1.90;1.00;;;12.20;99.90;;;;;;5052535;28;20736;-44
2023/01/07 12:03:51;;;;;;;1.58;1.30;;;12.20;99.90;;;;;;5053134;28;20258;-45
2023/01/07 12:06:24;;;;;;;2.15;1.10;;;12.20;99.90;;;;;;5052907;28;20686;-44
2023/01/07 12:09:06;;;;;;;2.05;0.80;;;12.20;99.90;;;;;;5052971;28;20166;-44
2023/01/07 12:11:34;;;;;;;0.88;0.82;;;12.20;99.90;;;;;;5052612;28;20167;-45
2023/01/07 12:14:17;;;;;;;1.10;1.00;;;12.00;99.90;;;;;;5052857;28;20535;-45
2023/01/07 12:16:44;;;;;;;1.67;1.20;;;12.10;99.90;;;;;;5053061;28;20167;-44
2023/01/07 12:19:30;;;;;;;1.52;1.10;;;12.10;99.90;;;;;;5052970;28;20174;-44
2023/01/07 12:22:23;;;;;;;2.47;1.70;;;12.10;99.90;;;;;;5052890;28;20176;-44
2023/01/07 12:25:28;;;;;;;1.73;1.00;;;12.10;99.90;;;;;;5052819;28;20203;-45
2023/01/07 12:28:16;;;;;;;0.90;0.90;;;12.10;99.90;;;;;;5052330;28;20166;-45
2023/01/07 12:31:04;;;;;;;1.05;0.95;;;12.10;99.90;;;;;;5052393;28;20704;-44
2023/01/07 12:33:41;;;;;;;0.90;0.90;;;12.10;99.90;;;;;;5052551;28;20166;-46
2023/01/07 12:36:42;;;;;;;1.08;1.00;;;12.20;99.90;;;;;;5052772;28;20162;-44
2023/01/07 12:39:21;;;;;;;3.17;1.80;;;12.20;99.90;;;;;;5020073;28;20182;-44
2023/01/07 12:42:13;;;;;;;1.83;1.40;;;12.20;99.90;;;;;;5050787;28;20171;-44
2023/01/07 12:45:02;;;;;;;1.98;1.50;;;12.20;99.90;;;;;;5052562;28;20619;-44
2023/01/07 12:47:49;;;;;;;1.70;1.60;;;12.10;99.90;;;;;;5052200;28;20579;-45
2023/01/07 12:50:24;;;;;;;1.63;1.52;;;12.20;99.90;;;;;;5051002;28;20535;-44
2023/01/07 12:52:55;;;;;;;2.65;2.30;;;12.20;99.90;;;;;;5052111;28;20641;-44
2023/01/07 12:55:25;;;;;;;1.83;1.65;;;12.10;99.90;;;;;;5052079;28;20163;-45
2023/01/07 12:58:15;;;;;;;2.45;2.10;;;12.10;99.90;;;;;;5052062;28;20216;-44
2023/01/07 13:00:46;;;;;;;2.63;1.75;;;12.10;99.90;;;;;;5052614;28;20570;-44
2023/01/07 13:03:27;;;;;;;4.97;2.28;;;12.10;99.90;;;;;;5052113;28;20280;-45
2023/01/07 13:05:55;;;;;;;1.75;1.65;;;12.10;99.90;;;;;;5051794;28;20208;-45